Time;durP1;ratioP1;P1;durP2;ratioP2;P2;SDS_P1;SDS_P2;PMS_P1;PMS_P2;Temp;Humidity;BMP_temperature;BMP_pressure;BME280_temperature;BME280_humidity;BME280_pressure;Samples;Min_cycle;Max_cycle;Signal;HPM_P1;HPM_P2
2021/11/01 00:02:00;;;;;;;;;2.50;2.00;;;;;-144.76;100.00;60493.00;5041659;28;45649;-87
2021/11/01 00:04:25;;;;;;;;;3.00;1.25;;;;;-144.76;100.00;60493.00;5042158;28;45429;-89
2021/11/01 00:06:51;;;;;;;;;3.25;1.75;;;;;-144.76;100.00;60493.00;5026091;28;45450;-86
2021/11/01 00:09:16;;;;;;;;;3.25;2.50;;;;;-144.76;100.00;60493.00;5042477;28;45446;-87
2021/11/01 00:11:42;;;;;;;;;3.00;2.25;;;;;-144.76;100.00;60493.00;5042567;28;45552;-86
2021/11/01 00:14:07;;;;;;;;;6.00;3.25;;;;;-144.76;100.00;60493.00;5044007;28;46271;-86
2021/11/01 00:16:33;;;;;;;;;2.00;1.00;;;;;-144.76;100.00;60493.00;5041810;28;45450;-85
2021/11/01 00:18:59;;;;;;;;;2.75;2.00;;;;;-144.76;100.00;60493.00;5040948;28;45412;-88
2021/11/01 00:21:24;;;;;;;;;2.00;1.25;;;;;-144.76;100.00;60493.00;5041472;28;45559;-87
2021/11/01 00:23:53;;;;;;;;;1.50;1.00;;;;;-144.76;100.00;60493.00;5043716;28;46088;-86
2021/11/01 00:26:18;;;;;;;;;2.25;2.25;;;;;-144.76;100.00;60493.00;5047481;28;46227;-87
2021/11/01 00:28:45;;;;;;;;;2.25;2.00;;;;;-144.76;100.00;60493.00;5038654;28;45534;-87
2021/11/01 00:31:12;;;;;;;;;4.50;3.50;;;;;-144.76;100.00;60493.00;5055957;28;45392;-87
2021/11/01 00:33:38;;;;;;;;;2.75;2.50;;;;;-144.76;100.00;60493.00;5039183;28;48082;-87
2021/11/01 00:36:04;;;;;;;;;1.50;1.50;;;;;-144.76;100.00;60493.00;5039225;28;45693;-87
2021/11/01 00:38:29;;;;;;;;;1.25;1.00;;;;;-144.76;100.00;60493.00;5039501;28;45502;-86
2021/11/01 00:40:55;;;;;;;;;1.00;1.00;;;;;-144.76;100.00;60493.00;5056126;28;45544;-86
2021/11/01 00:43:20;;;;;;;;;2.00;1.25;;;;;-144.76;100.00;60493.00;5057104;28;46029;-86
2021/11/01 00:45:46;;;;;;;;;1.75;1.00;;;;;-144.76;100.00;60493.00;5056919;28;45591;-90
2021/11/01 00:48:11;;;;;;;;;3.00;2.00;;;;;-144.76;100.00;60493.00;5056894;28;45625;-86
2021/11/01 00:50:38;;;;;;;;;2.50;1.50;;;;;-144.76;100.00;60493.00;5056968;28;45559;-87
2021/11/01 00:53:03;;;;;;;;;1.50;1.00;;;;;-144.76;100.00;60493.00;5038543;28;47204;-86
2021/11/01 00:55:36;;;;;;;;;1.00;1.00;;;;;-144.76;100.00;60493.00;5056166;28;45354;-88
2021/11/01 00:58:03;;;;;;;;;3.00;1.75;;;;;-144.76;100.00;60493.00;5055830;28;45508;-87
2021/11/01 01:00:29;;;;;;;;;1.50;1.25;;;;;-144.76;100.00;60493.00;5057307;28;45342;-89
2021/11/01 01:02:58;;;;;;;;;1.00;0.00;;;;;-144.76;100.00;60493.00;5055247;28;47751;-88
2021/11/01 01:05:24;;;;;;;;;1.25;1.00;;;;;-144.76;100.00;60493.00;5056526;28;45490;-90
2021/11/01 01:07:49;;;;;;;;;1.50;1.00;;;;;-144.76;100.00;60493.00;5056750;28;45466;-87
2021/11/01 01:10:15;;;;;;;;;3.00;2.00;;;;;-144.76;100.00;60493.00;5056815;28;45469;-86
2021/11/01 01:12:42;;;;;;;;;3.00;2.50;;;;;-144.76;100.00;60493.00;5055266;28;48268;-86
2021/11/01 01:15:18;;;;;;;;;2.00;1.00;;;;;-144.76;100.00;60493.00;5056742;28;46088;-86
2021/11/01 01:17:45;;;;;;;;;0.50;0.50;;;;;-144.76;100.00;60493.00;5056378;28;45557;-86
2021/11/01 01:20:13;;;;;;;;;1.00;1.00;;;;;-144.76;100.00;60493.00;5038367;28;45382;-85
2021/11/01 01:22:43;;;;;;;;;2.00;2.00;;;;;-144.76;100.00;60493.00;5056139;28;46092;-87
2021/11/01 01:25:17;;;;;;;;;1.00;1.00;;;;;-144.76;100.00;60493.00;5057050;28;45875;-86
2021/11/01 01:27:45;;;;;;;;;2.75;1.00;;;;;-144.76;100.00;60493.00;5056604;28;45355;-87
2021/11/01 01:30:12;;;;;;;;;2.75;1.25;;;;;-144.76;100.00;60493.00;5056722;28;45509;-88
2021/11/01 01:32:38;;;;;;;;;3.50;3.25;;;;;-144.76;100.00;60493.00;5056091;28;45300;-90
2021/11/01 01:35:05;;;;;;;;;1.00;1.00;;;;;-144.76;100.00;60493.00;5055199;28;45445;-86
2021/11/01 01:37:30;;;;;;;;;1.00;1.00;;;;;-144.76;100.00;60493.00;5056130;28;45643;-88
2021/11/01 01:39:55;;;;;;;;;2.75;1.00;;;;;-144.76;100.00;60493.00;5054314;28;45529;-89
2021/11/01 01:42:21;;;;;;;;;1.00;1.00;;;;;-144.76;100.00;60493.00;5037415;28;48040;-89
2021/11/01 01:44:46;;;;;;;;;3.00;2.00;;;;;-144.76;100.00;60493.00;5056089;28;45359;-86
2021/11/01 01:47:12;;;;;;;;;3.00;3.00;;;;;-144.76;100.00;60493.00;5037699;28;45850;-86
2021/11/01 01:49:37;;;;;;;;;1.50;0.75;;;;;-144.76;100.00;60493.00;5056347;28;45780;-86
2021/11/01 01:52:04;;;;;;;;;1.75;1.00;;;;;-144.76;100.00;60493.00;5055425;28;45637;-86
2021/11/01 01:54:29;;;;;;;;;1.25;1.25;;;;;-144.76;100.00;60493.00;5055849;28;45917;-89
2021/11/01 01:56:55;;;;;;;;;2.25;1.00;;;;;-144.76;100.00;60493.00;5037891;28;45651;-88
2021/11/01 01:59:21;;;;;;;;;1.00;1.00;;;;;-144.76;100.00;60493.00;5056159;28;45521;-86
2021/11/01 02:01:47;;;;;;;;;1.25;1.00;;;;;-144.76;100.00;60493.00;5044747;28;47941;-90
2021/11/01 02:04:19;;;;;;;;;2.50;2.00;;;;;-144.76;100.00;60493.00;5052516;28;45613;-87
2021/11/01 02:06:59;;;;;;;;;2.00;1.25;;;;;-144.76;100.00;60493.00;5054659;28;45577;-86
2021/11/01 02:09:35;;;;;;;;;1.25;1.00;;;;;-144.76;100.00;60493.00;5055115;28;46284;-86
2021/11/01 02:12:08;;;;;;;;;1.75;0.75;;;;;-144.76;100.00;60493.00;5036883;28;47437;-85
2021/11/01 02:14:44;;;;;;;;;1.00;1.00;;;;;-144.76;100.00;60493.00;5017422;28;45852;-86
2021/11/01 02:17:17;;;;;;;;;1.00;1.00;;;;;-144.76;100.00;60493.00;5035241;28;45535;-89
2021/11/01 02:19:47;;;;;;;;;0.00;0.00;;;;;-144.76;100.00;60493.00;5035664;28;45614;-88
2021/11/01 02:22:17;;;;;;;;;1.25;1.00;;;;;-144.76;100.00;60493.00;5034205;28;47607;-86
2021/11/01 02:24:55;;;;;;;;;2.25;2.00;;;;;-144.76;100.00;60493.00;5034186;28;45999;-86
2021/11/01 02:27:23;;;;;;;;;2.00;1.25;;;;;-144.76;100.00;60493.00;5034365;28;45669;-89
2021/11/01 02:29:49;;;;;;;;;2.75;1.00;;;;;-144.76;100.00;60493.00;5017928;28;45396;-88
2021/11/01 02:32:17;;;;;;;;;0.75;0.75;;;;;-144.76;100.00;60493.00;5016848;28;47284;-87
2021/11/01 02:34:43;;;;;;;;;1.00;1.00;;;;;-144.76;100.00;60493.00;5035550;28;45289;-87
2021/11/01 02:37:10;;;;;;;;;2.00;1.00;;;;;-144.76;100.00;60493.00;5017465;28;45573;-86
2021/11/01 02:39:50;;;;;;;;;1.00;1.00;;;;;-144.76;100.00;60493.00;5017808;28;45604;-87
2021/11/01 02:42:17;;;;;;;;;2.25;1.00;;;;;-144.76;100.00;60493.00;5033978;28;47261;-89
2021/11/01 02:44:54;;;;;;;;;3.50;2.50;;;;;-144.76;100.00;60493.00;5034106;28;45428;-89
2021/11/01 02:47:20;;;;;;;;;0.00;0.00;;;;;-144.76;100.00;60493.00;5017115;28;45439;-88
2021/11/01 02:49:45;;;;;;;;;2.00;1.75;;;;;-144.76;100.00;60493.00;5034849;28;45479;-86
2021/11/01 02:52:13;;;;;;;;;3.75;2.75;;;;;-144.76;100.00;60493.00;5034878;28;45422;-89
2021/11/01 02:54:39;;;;;;;;;0.25;0.25;;;;;-144.76;100.00;60493.00;5017135;28;45376;-88
2021/11/01 02:57:04;;;;;;;;;2.50;2.00;;;;;-144.76;100.00;60493.00;5034737;28;45498;-86
2021/11/01 02:59:30;;;;;;;;;4.00;2.00;;;;;-144.76;100.00;60493.00;5017074;28;45251;-87
2021/11/01 03:01:58;;;;;;;;;0.75;0.25;;;;;-144.76;100.00;60493.00;5034356;28;45537;-86
2021/11/01 03:04:24;;;;;;;;;1.25;1.00;;;;;-144.76;100.00;60493.00;5034786;28;45604;-88
2021/11/01 03:06:50;;;;;;;;;2.00;2.00;;;;;-144.76;100.00;60493.00;5035369;28;45478;-89
2021/11/01 03:09:16;;;;;;;;;2.50;2.50;;;;;-144.76;100.00;60493.00;5016392;28;45468;-90
2021/11/01 03:11:41;;;;;;;;;1.00;1.00;;;;;-144.76;100.00;60493.00;5015891;28;47227;-86
2021/11/01 03:14:07;;;;;;;;;1.25;1.25;;;;;-144.76;100.00;60493.00;5015892;28;45788;-89
2021/11/01 03:16:33;;;;;;;;;2.00;1.00;;;;;-144.76;100.00;60493.00;5033464;28;45756;-86
2021/11/01 03:19:06;;;;;;;;;2.00;2.00;;;;;-144.76;100.00;60493.00;5033485;28;45266;-87
2021/11/01 03:21:40;;;;;;;;;2.25;0.75;;;;;-144.76;100.00;60493.00;5015605;28;47146;-88
2021/11/01 03:24:07;;;;;;;;;0.00;0.00;;;;;-144.76;100.00;60493.00;5033775;28;45808;-90
2021/11/01 03:26:33;;;;;;;;;3.00;1.75;;;;;-144.76;100.00;60493.00;5036546;28;45442;-90
2021/11/01 03:29:03;;;;;;;;;2.25;1.00;;;;;-144.76;100.00;60493.00;5018966;28;45579;-89
2021/11/01 03:31:30;;;;;;;;;1.25;1.25;;;;;-144.76;100.00;60493.00;5018701;28;48323;-91
2021/11/01 03:33:56;;;;;;;;;1.00;1.00;;;;;-144.76;100.00;60493.00;5018853;28;45470;-90
2021/11/01 03:36:23;;;;;;;;;3.00;1.00;;;;;-144.76;100.00;60493.00;5018920;28;45651;-91
2021/11/01 03:38:48;;;;;;;;;1.50;1.50;;;;;-144.76;100.00;60493.00;5036764;28;45292;-90
2021/11/01 03:41:16;;;;;;;;;2.75;1.75;;;;;-144.76;100.00;60493.00;5036598;28;46289;-89
2021/11/01 03:44:16;;;;;;;;;2.00;1.00;;;;;-144.76;100.00;60493.00;5035011;28;45853;-88
2021/11/01 03:46:49;;;;;;;;;2.00;1.00;;;;;-144.76;100.00;60493.00;5034725;28;45410;-87
2021/11/01 03:49:15;;;;;;;;;1.00;1.00;;;;;-144.76;100.00;60493.00;5016928;28;45759;-90
2021/11/01 03:51:49;;;;;;;;;2.25;2.25;;;;;-144.76;100.00;60493.00;5039478;28;45540;-91
2021/11/01 03:54:18;;;;;;;;;1.25;0.75;;;;;-144.76;100.00;60493.00;5058484;28;45176;-86
2021/11/01 03:56:45;;;;;;;;;1.00;1.00;;;;;-144.76;100.00;60493.00;5033019;28;45388;-89
2021/11/01 03:59:12;;;;;;;;;2.75;1.00;;;;;-144.76;100.00;60493.00;5032916;28;45398;-88
2021/11/01 04:01:39;;;;;;;;;1.00;1.00;;;;;-144.76;100.00;60493.00;5033103;28;46490;-89
2021/11/01 04:04:06;;;;;;;;;1.00;1.00;;;;;-144.76;100.00;60493.00;5034249;28;45907;-88
2021/11/01 04:06:32;;;;;;;;;2.25;1.50;;;;;-144.76;100.00;60493.00;5034427;28;45495;-88
2021/11/01 04:08:58;;;;;;;;;2.00;1.00;;;;;-144.76;100.00;60493.00;5051439;28;45327;-85
2021/11/01 04:11:24;;;;;;;;;1.00;1.00;;;;;-144.76;100.00;60493.00;5043673;28;47072;-86
2021/11/01 04:13:56;;;;;;;;;2.00;1.00;;;;;-144.76;100.00;60493.00;5044261;28;45242;-87
2021/11/01 04:16:25;;;;;;;;;0.50;0.00;;;;;-144.76;100.00;60493.00;5044517;28;45010;-87
2021/11/01 04:21:48;;;;;;;;;1.00;1.00;;;;;-144.76;100.00;60493.00;5024529;28;45258;-88
2021/11/01 04:24:16;;;;;;;;;2.00;1.50;;;;;-144.76;100.00;60493.00;5062386;28;45122;-89
2021/11/01 04:26:43;;;;;;;;;3.00;2.00;;;;;-144.76;100.00;60493.00;5061695;28;44775;-89
2021/11/01 04:29:12;;;;;;;;;1.75;1.00;;;;;-144.76;100.00;60493.00;5045100;28;45300;-89
2021/11/01 04:31:40;;;;;;;;;1.00;1.00;;;;;-144.76;100.00;60493.00;5044098;28;47784;-90
2021/11/01 04:34:17;;;;;;;;;1.00;1.00;;;;;-144.76;100.00;60493.00;5060596;28;45094;-88
2021/11/01 04:36:42;;;;;;;;;0.75;0.75;;;;;-144.76;100.00;60493.00;5066947;27;44761;-89
2021/11/01 04:55:21;;;;;;;;;6.00;5.00;;;;;-144.76;100.00;60493.00;5036869;28;45209;-90
2021/11/01 04:57:47;;;;;;;;;3.00;3.00;;;;;-144.76;100.00;60493.00;5041324;28;44881;-90
2021/11/01 05:00:13;;;;;;;;;2.75;2.00;;;;;-144.76;100.00;60493.00;5041755;28;44896;-89
2021/11/01 05:02:42;;;;;;;;;3.50;3.50;;;;;-144.76;100.00;60493.00;5058293;27;47518;-89
2021/11/01 05:05:09;;;;;;;;;0.00;0.00;;;;;-144.76;100.00;60493.00;5042877;28;45052;-89
2021/11/01 05:07:34;;;;;;;;;2.00;2.00;;;;;-144.76;100.00;60493.00;5042553;28;44832;-88
2021/11/01 05:12:31;;;;;;;;;0.50;0.00;;;;;-144.76;100.00;60493.00;5026618;28;46280;-89
2021/11/01 05:15:13;;;;;;;;;1.25;1.00;;;;;-144.76;100.00;60493.00;5025481;28;46050;-88
2021/11/01 05:20:44;;;;;;;;;1.75;1.00;;;;;-144.76;100.00;60493.00;4986053;28;45480;-86
2021/11/01 05:25:56;;;;;;;;;0.75;0.75;;;;;-144.76;100.00;60493.00;5027832;28;45873;-86
2021/11/01 05:31:13;;;;;;;;;1.25;1.00;;;;;-144.76;100.00;60493.00;5028841;28;45324;-90
2021/11/01 05:33:55;;;;;;;;;0.00;0.00;;;;;-144.76;100.00;60493.00;5026544;28;45471;-89
2021/11/01 05:36:21;;;;;;;;;1.00;1.00;;;;;-144.76;100.00;60493.00;5026005;28;45493;-89
2021/11/01 05:38:49;;;;;;;;;1.50;1.00;;;;;-144.76;100.00;60493.00;5043889;28;45432;-87
2021/11/01 05:41:14;;;;;;;;;0.75;0.75;;;;;-144.76;100.00;60493.00;5024213;28;45459;-90
2021/11/01 05:43:40;;;;;;;;;1.00;1.00;;;;;-144.76;100.00;60493.00;5027409;28;46390;-89
2021/11/01 05:46:05;;;;;;;;;0.00;0.00;;;;;-144.76;100.00;60493.00;5027193;28;45222;-90
2021/11/01 05:48:31;;;;;;;;;1.00;0.00;;;;;-144.76;100.00;60493.00;5027459;28;45633;-90
2021/11/01 05:50:57;;;;;;;;;1.00;1.00;;;;;-144.76;100.00;60493.00;5033972;28;45304;-89
2021/11/01 05:53:24;;;;;;;;;1.00;0.75;;;;;-144.76;100.00;60493.00;5039184;28;45942;-89
2021/11/01 05:56:18;;;;;;;;;3.00;1.50;;;;;-144.76;100.00;60493.00;5055368;28;45311;-89
2021/11/01 05:59:00;;;;;;;;;0.25;0.25;;;;;-144.76;100.00;60493.00;5060689;28;44864;-87
2021/11/01 06:14:35;;;;;;;;;1.50;1.50;;;;;-144.76;100.00;60493.00;5060114;28;45339;-91
2021/11/01 06:17:02;;;;;;;;;0.25;0.25;;;;;-144.76;100.00;60493.00;5061069;28;45297;-90
2021/11/01 06:19:27;;;;;;;;;0.00;0.00;;;;;-144.76;100.00;60493.00;5060438;28;45581;-87
2021/11/01 06:21:53;;;;;;;;;1.00;1.00;;;;;-144.76;100.00;60493.00;5055405;28;45473;-90
2021/11/01 06:27:08;;;;;;;;;3.00;0.00;;;;;-144.76;100.00;60493.00;5055001;28;45927;-88
2021/11/01 06:29:43;;;;;;;;;2.00;1.00;;;;;-144.76;100.00;60493.00;5052924;28;45476;-87
2021/11/01 06:32:20;;;;;;;;;2.50;1.00;;;;;-144.76;100.00;60493.00;5051247;28;45881;-87
2021/11/01 06:40:29;;;;;;;;;0.00;0.00;;;;;-144.76;100.00;60493.00;5057970;28;45439;-90
2021/11/01 06:43:06;;;;;;;;;1.00;0.75;;;;;-144.76;100.00;60493.00;5055752;28;45627;-87
2021/11/01 06:51:12;;;;;;;;;0.25;0.00;;;;;-144.76;100.00;60493.00;5057058;28;45653;-89
2021/11/01 07:15:44;;;;;;;;;1.00;1.00;;;;;-144.76;100.00;60493.00;5053041;28;45689;-86
2021/11/01 07:20:49;;;;;;;;;3.25;3.00;;;;;-144.76;100.00;60493.00;5055318;28;45983;-89
2021/11/01 08:23:34;;;;;;;;;0.50;0.00;;;;;-144.76;100.00;60493.00;5050731;28;46052;-85
2021/11/01 08:36:47;;;;;;;;;0.50;0.25;;;;;-144.76;100.00;60493.00;5051857;28;45989;-86
2021/11/01 08:39:35;;;;;;;;;0.00;0.00;;;;;-144.76;100.00;60493.00;5049860;28;45352;-86
2021/11/01 09:13:30;;;;;;;;;36.00;31.50;;;;;-144.76;100.00;60493.00;5054743;28;45637;-88
2021/11/01 09:26:48;;;;;;;;;77.50;63.50;;;;;-144.76;100.00;60493.00;5056645;28;45491;-85
2021/11/01 09:42:49;;;;;;;;;0.00;0.00;;;;;-144.76;100.00;60493.00;5054723;28;45463;-85
2021/11/01 09:45:15;;;;;;;;;0.00;0.00;;;;;-144.76;100.00;60493.00;5050791;28;45528;-85
2021/11/01 09:47:46;;;;;;;;;3.25;2.00;;;;;-144.76;100.00;60493.00;5036314;28;47086;-86
2021/11/01 09:50:15;;;;;;;;;1.00;0.00;;;;;-144.76;100.00;60493.00;5051695;28;45387;-86
2021/11/01 09:52:43;;;;;;;;;0.50;0.50;;;;;-144.76;100.00;60493.00;5050452;28;45538;-86
2021/11/01 10:00:56;;;;;;;;;2.25;2.25;;;;;-144.76;100.00;60493.00;5047577;28;45375;-86
2021/11/01 10:03:51;;;;;;;;;2.00;1.00;;;;;-144.76;100.00;60493.00;5051890;28;45383;-87
2021/11/01 10:06:21;;;;;;;;;1.00;0.50;;;;;-144.76;100.00;60493.00;5032616;28;45625;-84
2021/11/01 10:08:53;;;;;;;;;1.25;1.00;;;;;-144.76;100.00;60493.00;5053923;28;46237;-86
2021/11/01 10:11:25;;;;;;;;;2.50;2.00;;;;;-144.76;100.00;60493.00;5036620;28;45900;-88
2021/11/01 10:13:52;;;;;;;;;0.50;0.50;;;;;-144.76;100.00;60493.00;5017683;28;45311;-90
2021/11/01 10:19:37;;;;;;;;;0.00;0.00;;;;;-144.76;100.00;60493.00;5051188;28;45808;-86
2021/11/01 10:22:08;;;;;;;;;1.00;0.00;;;;;-144.76;100.00;60493.00;5052380;28;45866;-87
2021/11/01 10:24:40;;;;;;;;;1.00;0.00;;;;;-144.76;100.00;60493.00;5054850;28;45411;-87
2021/11/01 10:27:13;;;;;;;;;1.00;1.00;;;;;-144.76;100.00;60493.00;5037765;28;45734;-86
2021/11/01 10:30:01;;;;;;;;;4.75;2.50;;;;;-144.76;100.00;60493.00;5038096;28;47257;-91
2021/11/01 10:32:45;;;;;;;;;2.00;1.50;;;;;-144.76;100.00;60493.00;5038147;28;46087;-88
2021/11/01 10:35:32;;;;;;;;;2.00;2.00;;;;;-144.76;100.00;60493.00;5038468;28;45279;-90
2021/11/01 11:13:49;;;;;;;;;24.50;22.75;;;;;-144.76;100.00;60493.00;5054996;28;45489;-90
2021/11/01 11:40:58;;;;;;;;;3.50;3.50;;;;;-144.76;100.00;60493.00;5054198;28;45232;-88
2021/11/01 11:43:50;;;;;;;;;1.50;1.00;;;;;-144.76;100.00;60493.00;5053178;28;45663;-89
2021/11/01 11:49:04;;;;;;;;;1.00;0.00;;;;;-144.76;100.00;60493.00;5054626;28;45939;-90
2021/11/01 11:51:30;;;;;;;;;0.00;0.00;;;;;-144.76;100.00;60493.00;5053217;28;45476;-91
2021/11/01 11:54:01;;;;;;;;;1.00;1.00;;;;;-144.76;100.00;60493.00;5036401;28;45564;-89
2021/11/01 11:56:30;;;;;;;;;0.00;0.00;;;;;-144.76;100.00;60493.00;5053215;28;48120;-92
2021/11/01 11:59:02;;;;;;;;;6.50;5.50;;;;;-144.76;100.00;60493.00;5052926;28;45351;-89
2021/11/01 12:01:30;;;;;;;;;1.00;1.00;;;;;-144.76;100.00;60493.00;5037992;28;45389;-90
2021/11/01 12:03:58;;;;;;;;;0.00;0.00;;;;;-144.76;100.00;60493.00;5041074;28;45411;-92
2021/11/01 12:06:54;;;;;;;;;0.75;0.75;;;;;-144.76;100.00;60493.00;5063393;28;45408;-92
2021/11/01 12:09:33;;;;;;;;;1.00;1.00;;;;;-144.76;100.00;60493.00;5047516;28;45624;-86
2021/11/01 12:17:21;;;;;;;;;0.00;0.00;;;;;-144.76;100.00;60493.00;5043153;28;45430;-85
2021/11/01 12:19:47;;;;;;;;;1.50;1.50;;;;;-144.76;100.00;60493.00;5042066;28;45865;-85
2021/11/01 12:22:23;;;;;;;;;10.75;9.75;;;;;-144.76;100.00;60493.00;5041108;28;45339;-85
2021/11/01 12:24:50;;;;;;;;;0.00;0.00;;;;;-144.76;100.00;60493.00;5029516;28;45576;-90
2021/11/01 12:27:18;;;;;;;;;1.00;0.00;;;;;-144.76;100.00;60493.00;5027136;28;47565;-85
2021/11/01 12:29:50;;;;;;;;;1.50;0.50;;;;;-144.76;100.00;60493.00;5045343;28;45469;-86
2021/11/01 12:32:15;;;;;;;;;0.50;0.50;;;;;-144.76;100.00;60493.00;5046892;28;45438;-88
2021/11/01 12:34:54;;;;;;;;;2.00;2.00;;;;;-144.76;100.00;60493.00;5027719;28;45899;-86
2021/11/01 12:37:25;;;;;;;;;1.00;0.00;;;;;-144.76;100.00;60493.00;5027608;28;47188;-88
2021/11/01 12:40:42;;;;;;;;;3.50;2.75;;;;;-144.76;100.00;60493.00;5045874;28;45511;-85
2021/11/01 12:57:07;;;;;;;;;2.00;1.00;;;;;-144.76;100.00;60493.00;5063169;28;45278;-85
2021/11/01 12:59:36;;;;;;;;;5.00;5.00;;;;;-144.76;100.00;60493.00;5049803;28;48393;-89
2021/11/01 13:02:02;;;;;;;;;0.00;0.00;;;;;-144.76;100.00;60493.00;5059912;28;45514;-86
2021/11/01 13:04:39;;;;;;;;;0.50;0.50;;;;;-144.76;100.00;60493.00;5055000;28;45763;-85
2021/11/01 13:07:49;;;;;;;;;1.00;0.00;;;;;-144.76;100.00;60493.00;5050413;28;45451;-87
2021/11/01 13:10:41;;;;;;;;;0.75;0.75;;;;;-144.76;100.00;60493.00;5040103;28;46178;-86
2021/11/01 13:21:02;;;;;;;;;1.50;0.75;;;;;-144.76;100.00;60493.00;5052703;28;45850;-85
2021/11/01 13:23:33;;;;;;;;;1.00;0.00;;;;;-144.76;100.00;60493.00;5049462;28;45889;-85
2021/11/01 13:28:53;;;;;;;;;6.75;6.75;;;;;-144.76;100.00;60493.00;5045909;28;45543;-87
2021/11/01 13:36:48;;;;;;;;;1.00;0.50;;;;;-144.76;100.00;60493.00;5064769;28;45767;-87
2021/11/01 13:39:28;;;;;;;;;1.75;0.25;;;;;-144.76;100.00;60493.00;5047595;28;45191;-86
2021/11/01 13:41:54;;;;;;;;;0.25;0.00;;;;;-144.76;100.00;60493.00;5065912;28;46969;-89
2021/11/01 13:44:25;;;;;;;;;1.25;1.00;;;;;-144.76;100.00;60493.00;5049842;28;45491;-91
2021/11/01 13:47:01;;;;;;;;;1.00;0.00;;;;;-144.76;100.00;60493.00;5064957;28;45450;-92
2021/11/01 13:49:34;;;;;;;;;2.00;2.00;;;;;-144.76;100.00;60493.00;5063416;28;45178;-87
2021/11/01 13:52:26;;;;;;;;;1.50;1.00;;;;;-144.76;100.00;60493.00;5062127;28;47725;-89
2021/11/01 13:55:02;;;;;;;;;2.00;2.00;;;;;-144.76;100.00;60493.00;5052199;28;45038;-86
2021/11/01 13:57:32;;;;;;;;;2.00;1.25;;;;;-144.76;100.00;60493.00;5052051;28;45032;-87
2021/11/01 14:03:07;;;;;;;;;1.00;1.00;;;;;-144.76;100.00;60493.00;5050728;28;45370;-85
2021/11/01 14:11:48;;;;;;;;;13.25;11.00;;;;;-144.76;100.00;60493.00;5051886;28;44976;-86
2021/11/01 14:14:09;;;;;;;;;0.00;0.00;;;;;-144.76;100.00;60493.00;5047617;28;45239;-86
2021/11/01 15:08:22;;;;;;;;;4.75;4.00;;;;;-144.76;100.00;60493.00;5044838;28;45941;-86
2021/11/01 15:16:09;;;;;;;;;4.25;4.25;;;;;-144.76;100.00;60493.00;5051258;28;45543;-89
2021/11/01 15:18:53;;;;;;;;;2.00;2.00;;;;;-144.76;100.00;60493.00;5051491;28;45642;-85
2021/11/01 15:21:32;;;;;;;;;1.00;1.00;;;;;-144.76;100.00;60493.00;5050425;28;45986;-85
2021/11/01 15:29:32;;;;;;;;;1.00;1.00;;;;;-144.76;100.00;60493.00;5042685;28;45600;-89
2021/11/01 16:20:05;;;;;;;;;33.75;28.25;;;;;-144.76;100.00;60493.00;5033346;28;45547;-87
2021/11/01 16:22:31;;;;;;;;;22.50;21.00;;;;;-144.76;100.00;60493.00;5039735;28;46259;-93
2021/11/01 16:24:56;;;;;;;;;20.25;17.75;;;;;-144.76;100.00;60493.00;5055280;28;45386;-91
2021/11/01 16:27:23;;;;;;;;;2.75;1.25;;;;;-144.76;100.00;60493.00;5049202;28;45619;-89
2021/11/01 16:29:58;;;;;;;;;21.50;19.75;;;;;-144.76;100.00;60493.00;5034857;28;45356;-88
2021/11/01 16:32:43;;;;;;;;;19.00;19.00;;;;;-144.76;100.00;60493.00;5035124;28;45367;-91
2021/11/01 16:35:10;;;;;;;;;15.50;15.50;;;;;-144.76;100.00;60493.00;5036054;28;45277;-92
2021/11/01 16:40:40;;;;;;;;;17.75;17.00;;;;;-144.76;100.00;60493.00;4974174;28;45386;-86
2021/11/01 16:43:13;;;;;;;;;14.75;14.75;;;;;-144.76;100.00;60493.00;5010219;28;47413;-91
2021/11/01 16:45:39;;;;;;;;;15.25;15.00;;;;;-144.76;100.00;60493.00;5035764;28;45460;-90
2021/11/01 16:48:07;;;;;;;;;13.50;13.50;;;;;-144.76;100.00;60493.00;5034669;28;45317;-86
2021/11/01 16:50:33;;;;;;;;;15.75;14.75;;;;;-144.76;100.00;60493.00;5034686;28;45363;-90
2021/11/01 16:52:59;;;;;;;;;14.00;13.75;;;;;-144.76;100.00;60493.00;5033705;28;48796;-88
2021/11/01 16:55:29;;;;;;;;;16.50;16.00;;;;;-144.76;100.00;60493.00;5035538;28;45353;-89
2021/11/01 16:58:03;;;;;;;;;17.50;16.50;;;;;-144.76;100.00;60493.00;5033691;28;45344;-90
2021/11/01 17:00:53;;;;;;;;;11.25;10.75;;;;;-144.76;100.00;60493.00;5025211;28;45564;-89
2021/11/01 17:24:53;;;;;;;;;17.00;16.75;;;;;-144.76;100.00;60493.00;5042952;28;46033;-85
2021/11/01 18:53:20;;;;;;;;;26.50;26.25;;;;;-144.76;100.00;60493.00;5055321;28;45355;-94
2021/11/01 18:55:54;;;;;;;;;29.25;27.00;;;;;-144.76;100.00;60493.00;5055111;28;45701;-90
2021/11/01 18:58:24;;;;;;;;;19.00;19.00;;;;;-144.76;100.00;60493.00;5037253;28;45573;-90
2021/11/01 19:00:51;;;;;;;;;18.25;18.00;;;;;-144.76;100.00;60493.00;5037597;28;45524;-93
2021/11/01 19:03:18;;;;;;;;;18.75;16.75;;;;;-144.76;100.00;60493.00;5052999;28;48483;-88
2021/11/01 19:05:54;;;;;;;;;11.00;11.00;;;;;-144.76;100.00;60493.00;5036444;28;45485;-86
2021/11/01 20:06:44;;;;;;;;;24.00;24.00;;;;;-144.76;100.00;60493.00;5030381;28;45534;-85
2021/11/01 21:26:36;;;;;;;;;14.75;12.50;;;;;-144.76;100.00;60493.00;5054150;28;45929;-84
2021/11/01 21:29:03;;;;;;;;;17.00;16.75;;;;;-144.76;100.00;60493.00;5053432;28;45853;-84
2021/11/01 21:31:28;;;;;;;;;19.00;17.00;;;;;-144.76;100.00;60493.00;5049472;28;45740;-86
2021/11/01 21:33:56;;;;;;;;;19.50;18.00;;;;;-144.76;100.00;60493.00;5052874;28;46598;-85
2021/11/01 21:36:25;;;;;;;;;29.25;28.00;;;;;-144.76;100.00;60493.00;5054308;28;45494;-84
2021/11/01 21:38:51;;;;;;;;;28.00;26.25;;;;;-144.76;100.00;60493.00;5052529;28;46018;-86
2021/11/01 21:41:17;;;;;;;;;23.25;20.25;;;;;-144.76;100.00;60493.00;5045115;28;45498;-86
2021/11/01 21:43:42;;;;;;;;;19.50;19.50;;;;;-144.76;100.00;60493.00;5054446;28;45674;-85
2021/11/01 21:46:08;;;;;;;;;21.25;19.50;;;;;-144.76;100.00;60493.00;5054557;28;45510;-82
2021/11/01 21:48:33;;;;;;;;;19.75;19.25;;;;;-144.76;100.00;60493.00;5044255;28;45296;-83
2021/11/01 21:50:59;;;;;;;;;19.75;19.75;;;;;-144.76;100.00;60493.00;5047231;28;45450;-84
2021/11/01 21:53:26;;;;;;;;;13.50;11.75;;;;;-144.76;100.00;60493.00;5044389;28;45568;-84
2021/11/01 21:55:52;;;;;;;;;13.00;13.00;;;;;-144.76;100.00;60493.00;5047010;28;45493;-85
2021/11/01 22:17:26;;;;;;;;;10.25;8.75;;;;;-144.76;100.00;60493.00;5048564;28;45756;-85
2021/11/01 22:25:16;;;;;;;;;8.25;8.00;;;;;-144.76;100.00;60493.00;5054970;28;45403;-86
2021/11/01 22:41:24;;;;;;;;;9.00;9.00;;;;;-144.76;100.00;60493.00;5056415;28;45538;-85
2021/11/01 22:57:10;;;;;;;;;4.75;2.75;;;;;-144.76;100.00;60493.00;5056145;28;45276;-90
2021/11/01 22:59:37;;;;;;;;;3.00;3.00;;;;;-144.76;100.00;60493.00;5054430;28;48200;-86
2021/11/01 23:02:03;;;;;;;;;3.50;3.50;;;;;-144.76;100.00;60493.00;5053516;28;45862;-89
2021/11/01 23:04:45;;;;;;;;;5.00;4.00;;;;;-144.76;100.00;60493.00;5053440;28;45241;-89
2021/11/01 23:31:42;;;;;;;;;3.00;3.00;;;;;-144.76;100.00;60493.00;5057692;28;45573;-92
2021/11/01 23:34:11;;;;;;;;;2.50;2.00;;;;;-144.76;100.00;60493.00;5056849;28;45553;-92
2021/11/01 23:36:38;;;;;;;;;2.00;2.00;;;;;-144.76;100.00;60493.00;5058340;28;45573;-92
2021/11/01 23:39:08;;;;;;;;;2.00;2.00;;;;;-144.76;100.00;60493.00;5058013;28;45205;-92
2021/11/01 23:41:37;;;;;;;;;3.25;3.25;;;;;-144.76;100.00;60493.00;5057338;28;45518;-92
2021/11/01 23:44:03;;;;;;;;;3.00;2.50;;;;;-144.76;100.00;60493.00;5056488;28;46132;-92
2021/11/01 23:46:29;;;;;;;;;1.50;1.50;;;;;-144.76;100.00;60493.00;5057569;28;45560;-92
2021/11/01 23:48:55;;;;;;;;;2.25;1.75;;;;;-144.76;100.00;60493.00;5057401;28;45716;-90
2021/11/01 23:51:36;;;;;;;;;1.00;1.00;;;;;-144.76;100.00;60493.00;5055459;28;48303;-93
2021/11/01 23:56:40;;;;;;;;;1.75;1.25;;;;;-144.76;100.00;60493.00;5057450;28;45447;-92
2021/11/01 23:59:05;;;;;;;;;1.75;1.00;;;;;-144.76;100.00;60493.00;5056295;28;45527;-92
